createdAt,value
2023-03-08T00:04:01.040Z,986.06
2023-03-08T00:09:00.945Z,985.90
2023-03-08T00:14:00.830Z,986.18
2023-03-08T00:19:00.798Z,986.28
2023-03-08T00:24:00.757Z,986.42
2023-03-08T00:29:00.697Z,986.25
2023-03-08T00:34:00.593Z,986.38
2023-03-08T00:39:00.554Z,986.45
2023-03-08T00:44:00.463Z,986.37
2023-03-08T00:49:00.398Z,986.49
2023-03-08T00:54:00.344Z,986.61
2023-03-08T00:59:00.274Z,986.61
2023-03-08T01:04:00.297Z,986.66
2023-03-08T01:09:00.206Z,986.56
2023-03-08T01:14:00.101Z,986.53
2023-03-08T01:19:00.040Z,986.64
2023-03-08T01:24:00.004Z,986.60
2023-03-08T01:28:59.877Z,986.70
2023-03-08T01:33:59.837Z,986.56
2023-03-08T01:38:59.774Z,986.45
2023-03-08T01:43:59.711Z,986.67
2023-03-08T01:48:59.632Z,986.61
2023-03-08T01:53:59.586Z,986.56
2023-03-08T01:58:59.557Z,986.52
2023-03-08T02:03:59.425Z,986.47
2023-03-08T02:08:59.401Z,986.63
2023-03-08T02:13:59.290Z,986.49
2023-03-08T02:18:59.247Z,986.57
2023-03-08T02:23:59.487Z,986.49
2023-03-08T02:28:59.153Z,986.66
2023-03-08T02:33:59.079Z,986.58
2023-03-08T02:38:59.030Z,986.67
2023-03-08T02:43:58.998Z,986.50
2023-03-08T02:48:58.884Z,986.56
2023-03-08T02:53:58.802Z,986.59
2023-03-08T02:58:58.740Z,986.60
2023-03-08T03:03:58.693Z,986.57
2023-03-08T03:08:58.678Z,986.57
2023-03-08T03:13:58.568Z,986.69
2023-03-08T03:18:58.492Z,986.77
2023-03-08T03:23:58.435Z,986.76
2023-03-08T03:28:58.354Z,986.73
2023-03-08T03:33:58.264Z,986.68
2023-03-08T03:38:58.302Z,986.73
2023-03-08T03:43:58.306Z,986.87
2023-03-08T03:48:58.225Z,986.89
2023-03-08T03:53:58.051Z,986.92
2023-03-08T03:58:58.040Z,986.98
2023-03-08T04:03:57.998Z,986.89
2023-03-08T04:08:57.855Z,987.03
2023-03-08T04:13:57.794Z,987.02
2023-03-08T04:18:57.769Z,987.11
2023-03-08T04:23:59.511Z,987.02
2023-03-08T04:28:57.606Z,987.01
2023-03-08T04:33:57.529Z,987.09
2023-03-08T04:38:57.487Z,987.09
2023-03-08T04:43:57.387Z,986.94
2023-03-08T04:48:57.346Z,986.82
2023-03-08T04:53:57.258Z,987.00
2023-03-08T04:58:57.237Z,986.95
2023-03-08T05:03:57.128Z,986.97
2023-03-08T05:08:57.061Z,986.97
2023-03-08T05:13:57.001Z,986.92
2023-03-08T05:18:56.996Z,987.02
2023-03-08T05:23:56.892Z,986.99
2023-03-08T05:28:56.881Z,987.03
2023-03-08T05:33:56.815Z,987.01
2023-03-08T05:38:56.751Z,987.03
2023-03-08T05:43:56.619Z,987.13
2023-03-08T05:48:56.575Z,987.15
2023-03-08T05:53:56.492Z,987.14
2023-03-08T05:58:56.401Z,987.12
2023-03-08T06:03:56.374Z,987.17
2023-03-08T06:08:56.418Z,987.25
2023-03-08T06:13:56.216Z,987.14
2023-03-08T06:18:56.154Z,987.17
2023-03-08T06:23:56.105Z,987.23
2023-03-08T06:28:56.047Z,987.31
2023-03-08T06:33:55.958Z,987.31
2023-03-08T06:38:55.932Z,987.19
2023-03-08T06:43:55.841Z,987.16
2023-03-08T06:48:55.799Z,986.98
2023-03-08T06:53:55.696Z,986.92
2023-03-08T06:58:55.671Z,987.04
2023-03-08T07:03:55.691Z,987.00
2023-03-08T07:08:55.504Z,987.11
2023-03-08T07:13:55.465Z,987.19
2023-03-08T07:18:55.376Z,987.19
2023-03-08T07:23:55.330Z,987.22
2023-03-08T07:28:55.304Z,987.12
2023-03-08T07:33:55.186Z,987.12
2023-03-08T07:38:55.128Z,987.25
2023-03-08T07:43:55.127Z,987.23
2023-03-08T07:48:55.538Z,987.09
2023-03-08T07:53:54.920Z,987.16
2023-03-08T07:58:54.871Z,987.09
2023-03-08T08:03:54.867Z,987.12
2023-03-08T08:08:54.746Z,987.15
2023-03-08T08:13:54.666Z,987.14
2023-03-08T08:18:54.589Z,987.02
2023-03-08T08:23:54.527Z,986.87
2023-03-08T08:28:54.489Z,986.84
2023-03-08T08:33:54.393Z,986.90
2023-03-08T08:38:54.337Z,986.84
2023-03-08T08:43:54.274Z,986.83
2023-03-08T08:48:54.196Z,986.83
2023-03-08T08:53:54.175Z,986.67
2023-03-08T08:58:54.074Z,986.64
2023-03-08T09:03:54.061Z,986.56
2023-03-08T09:08:53.946Z,986.52
2023-03-08T09:13:53.866Z,986.45
2023-03-08T09:18:53.815Z,986.23
2023-03-08T09:23:53.779Z,986.14
2023-03-08T09:28:53.702Z,986.16
2023-03-08T09:33:53.592Z,986.07
2023-03-08T09:38:53.569Z,986.08
2023-03-08T09:43:53.507Z,985.80
2023-03-08T09:48:53.445Z,985.86
2023-03-08T09:53:53.400Z,985.69
2023-03-08T09:58:53.288Z,985.58
2023-03-08T10:03:53.295Z,985.54
2023-03-08T10:08:53.186Z,985.54
2023-03-08T10:13:53.128Z,985.45
2023-03-08T10:18:53.052Z,985.37
2023-03-08T10:23:52.959Z,985.40
2023-03-08T10:28:52.897Z,985.37
2023-03-08T10:33:52.822Z,985.26
2023-03-08T10:38:52.780Z,985.29
2023-03-08T10:43:52.715Z,985.13
2023-03-08T10:48:52.657Z,985.05
2023-03-08T10:53:52.588Z,985.02
2023-03-08T10:58:52.550Z,984.93
2023-03-08T11:03:52.453Z,984.77
2023-03-08T11:08:52.380Z,984.74
2023-03-08T11:13:52.359Z,984.60
2023-03-08T11:18:52.325Z,984.44
2023-03-08T11:23:52.170Z,984.26
2023-03-08T11:28:52.171Z,984.13
2023-03-08T11:33:52.156Z,983.98
2023-03-08T11:38:51.981Z,983.86
2023-03-08T11:43:51.904Z,983.70
2023-03-08T11:48:52.180Z,983.71
2023-03-08T11:53:51.876Z,983.55
2023-03-08T11:58:51.737Z,983.39
2023-03-08T12:03:51.770Z,983.24
2023-03-08T12:08:51.602Z,983.22
2023-03-08T12:13:51.501Z,983.07
2023-03-08T12:18:51.457Z,983.08
2023-03-08T12:23:51.467Z,983.07
2023-03-08T12:28:51.317Z,983.07
2023-03-08T12:33:51.312Z,982.93
2023-03-08T12:38:51.206Z,982.99
2023-03-08T12:43:51.104Z,982.90
2023-03-08T12:48:51.128Z,982.80
2023-03-08T12:53:51.004Z,982.82
2023-03-08T12:58:50.931Z,982.78
2023-03-08T13:03:50.870Z,982.83
2023-03-08T13:08:50.802Z,982.84
2023-03-08T13:13:50.791Z,982.87
2023-03-08T13:18:51.452Z,982.95
2023-03-08T13:23:50.753Z,982.93
2023-03-08T13:28:50.594Z,982.89
2023-03-08T13:33:50.534Z,982.75
2023-03-08T13:38:50.436Z,982.71
2023-03-08T13:43:51.310Z,982.67
2023-03-08T13:48:50.269Z,982.55
2023-03-08T13:53:50.270Z,982.53
2023-03-08T13:58:50.157Z,982.37
2023-03-08T14:03:50.076Z,982.12
2023-03-08T14:08:50.046Z,982.13
2023-03-08T14:13:49.932Z,982.30
2023-03-08T14:18:49.904Z,982.05
2023-03-08T14:23:49.857Z,981.98
2023-03-08T14:28:49.842Z,981.97
2023-03-08T14:33:49.735Z,981.88
2023-03-08T14:38:49.642Z,981.90
2023-03-08T14:43:49.571Z,981.92
2023-03-08T14:48:49.653Z,981.84
2023-03-08T14:53:49.449Z,981.66
2023-03-08T14:58:49.433Z,981.65
2023-03-08T15:03:49.409Z,981.68
2023-03-08T15:08:49.208Z,981.42
2023-03-08T15:13:49.153Z,981.09
2023-03-08T15:18:49.155Z,981.14
2023-03-08T15:23:49.036Z,981.30
2023-03-08T15:28:48.973Z,981.35
2023-03-08T15:33:48.911Z,981.24
2023-03-08T15:38:48.834Z,981.16
2023-03-08T15:43:48.781Z,981.19
2023-03-08T15:48:48.737Z,981.08
2023-03-08T15:53:48.634Z,980.86
2023-03-08T15:58:48.550Z,980.82
2023-03-08T16:03:48.515Z,980.84
2023-03-08T16:08:48.454Z,980.74
2023-03-08T16:13:48.438Z,980.65
2023-03-08T16:18:48.337Z,980.63
2023-03-08T16:23:48.258Z,980.77
2023-03-08T16:28:48.237Z,980.70
2023-03-08T16:33:48.427Z,980.66
2023-03-08T16:38:48.081Z,980.59
2023-03-08T16:43:48.729Z,980.48
2023-03-08T16:48:47.911Z,980.50
2023-03-08T16:53:47.952Z,980.57
2023-03-08T16:58:47.949Z,980.57
2023-03-08T17:03:47.684Z,980.61
2023-03-08T17:08:47.709Z,980.58
2023-03-08T17:13:47.616Z,980.53
2023-03-08T17:18:47.602Z,980.51
2023-03-08T17:23:47.445Z,980.49
2023-03-08T17:28:47.401Z,980.49
2023-03-08T17:33:47.481Z,980.40
2023-03-08T17:38:47.320Z,980.25
2023-03-08T17:43:47.178Z,980.25
2023-03-08T17:48:47.121Z,980.32
2023-03-08T17:53:47.132Z,980.13
2023-03-08T17:58:47.154Z,980.10
2023-03-08T18:03:46.913Z,980.23
2023-03-08T18:08:46.863Z,980.26
2023-03-08T18:13:46.771Z,980.35
2023-03-08T18:18:47.002Z,980.54
2023-03-08T18:23:46.918Z,980.54
2023-03-08T18:28:46.545Z,980.45
2023-03-08T18:33:46.510Z,980.31
2023-03-08T18:38:46.447Z,980.28
2023-03-08T18:43:46.391Z,980.31
2023-03-08T18:48:46.523Z,980.28
2023-03-08T18:53:46.272Z,980.32
2023-03-08T18:58:46.414Z,980.35
2023-03-08T19:03:46.322Z,980.34
2023-03-08T19:08:46.058Z,980.27
2023-03-08T19:13:46.143Z,980.17
2023-03-08T19:18:45.944Z,979.99
2023-03-08T19:23:45.888Z,980.10
2023-03-08T19:28:45.947Z,980.16
2023-03-08T19:33:45.770Z,980.31
2023-03-08T19:38:45.671Z,980.35
2023-03-08T19:43:45.567Z,980.34
2023-03-08T19:48:45.933Z,980.26
2023-03-08T19:53:45.436Z,980.15
2023-03-08T19:58:45.463Z,980.19
2023-03-08T20:03:45.413Z,980.15
2023-03-08T20:08:45.259Z,980.20
2023-03-08T20:13:45.181Z,980.21
2023-03-08T20:18:45.297Z,980.24
2023-03-08T20:23:45.093Z,980.25
2023-03-08T20:28:44.984Z,980.25
2023-03-08T20:33:44.896Z,980.27
2023-03-08T20:38:44.843Z,980.31
2023-03-08T20:43:44.790Z,980.34
2023-03-08T20:48:44.718Z,980.34
2023-03-08T20:53:44.642Z,980.35
2023-03-08T20:58:44.578Z,980.45
2023-03-08T21:03:44.581Z,980.36
2023-03-08T21:08:44.561Z,980.37
2023-03-08T21:13:44.410Z,980.40
2023-03-08T21:18:44.321Z,980.35
2023-03-08T21:23:44.232Z,980.26
2023-03-08T21:28:44.204Z,980.21
2023-03-08T21:33:44.090Z,980.29
2023-03-08T21:38:44.063Z,980.06
2023-03-08T21:43:44.020Z,980.11
2023-03-08T21:48:43.892Z,980.00
2023-03-08T21:53:43.816Z,979.90
2023-03-08T21:58:43.791Z,979.92
2023-03-08T22:03:43.706Z,979.80
2023-03-08T22:08:43.644Z,979.79
2023-03-08T22:13:43.610Z,979.75
2023-03-08T22:18:43.489Z,979.83
2023-03-08T22:23:43.468Z,979.76
2023-03-08T22:28:43.402Z,979.72
2023-03-08T22:33:43.345Z,979.77
2023-03-08T22:38:43.230Z,979.66
2023-03-08T22:43:43.207Z,979.69
2023-03-08T22:48:43.160Z,979.56
2023-03-08T22:53:43.053Z,979.57
2023-03-08T22:58:42.951Z,979.58
2023-03-08T23:03:42.932Z,979.61
2023-03-08T23:08:42.867Z,979.69
2023-03-08T23:13:42.768Z,979.59
2023-03-08T23:18:42.734Z,979.62
2023-03-08T23:23:42.636Z,979.51
2023-03-08T23:28:42.577Z,979.45
2023-03-08T23:33:42.517Z,979.41
2023-03-08T23:38:42.446Z,979.53
2023-03-08T23:43:42.368Z,979.48
2023-03-08T23:48:42.324Z,979.33
2023-03-08T23:53:42.278Z,979.26
2023-03-08T23:58:42.159Z,979.20
